Map

Track Data

SID SEASON NUMBER BASIN SUBBASIN NAME ISO_TIME NATURE LAT LON WMO_WIND WMO_PRES WMO_AGENCY TRACK_TYPE DIST2LAND LANDFALL IFLAG USA_AGENCY USA_ATCF_ID USA_LAT USA_LON USA_RECORD USA_STATUS USA_WIND USA_PRES USA_SSHS USA_R34_NE USA_R34_SE USA_R34_SW USA_R34_NW USA_R50_NE USA_R50_SE USA_R50_SW USA_R50_NW USA_R64_NE USA_R64_SE USA_R64_SW USA_R64_NW USA_POCI USA_ROCI USA_RMW USA_EYE TOKYO_LAT TOKYO_LON TOKYO_GRADE TOKYO_WIND TOKYO_PRES TOKYO_R50_DIR TOKYO_R50_LONG TOKYO_R50_SHORT TOKYO_R30_DIR TOKYO_R30_LONG TOKYO_R30_SHORT TOKYO_LAND CMA_LAT CMA_LON CMA_CAT CMA_WIND CMA_PRES HKO_LAT HKO_LON HKO_CAT HKO_WIND HKO_PRES NEWDELHI_LAT NEWDELHI_LON NEWDELHI_GRADE NEWDELHI_WIND NEWDELHI_PRES NEWDELHI_CI NEWDELHI_DP NEWDELHI_POCI REUNION_LAT REUNION_LON REUNION_TYPE REUNION_WIND REUNION_PRES REUNION_TNUM REUNION_CI REUNION_RMW REUNION_R34_NE REUNION_R34_SE REUNION_R34_SW REUNION_R34_NW REUNION_R50_NE REUNION_R50_SE REUNION_R50_SW REUNION_R50_NW REUNION_R64_NE REUNION_R64_SE REUNION_R64_SW REUNION_R64_NW BOM_LAT BOM_LON BOM_TYPE BOM_WIND BOM_PRES BOM_TNUM BOM_CI BOM_RMW BOM_R34_NE BOM_R34_SE BOM_R34_SW BOM_R34_NW BOM_R50_NE BOM_R50_SE BOM_R50_SW BOM_R50_NW BOM_R64_NE BOM_R64_SE BOM_R64_SW BOM_R64_NW BOM_ROCI BOM_POCI BOM_EYE BOM_POS_METHOD BOM_PRES_METHOD NADI_LAT NADI_LON NADI_CAT NADI_WIND NADI_PRES WELLINGTON_LAT WELLINGTON_LON WELLINGTON_WIND WELLINGTON_PRES DS824_LAT DS824_LON DS824_STAGE DS824_WIND DS824_PRES TD9636_LAT TD9636_LON TD9636_STAGE TD9636_WIND TD9636_PRES TD9635_LAT TD9635_LON TD9635_WIND TD9635_PRES TD9635_ROCI NEUMANN_LAT NEUMANN_LON NEUMANN_CLASS NEUMANN_WIND NEUMANN_PRES MLC_LAT MLC_LON MLC_CLASS MLC_WIND MLC_PRES USA_GUST BOM_GUST BOM_GUST_PER REUNION_GUST REUNION_GUST_PER USA_SEAHGT USA_SEARAD_NE USA_SEARAD_SE USA_SEARAD_SW USA_SEARAD_NW STORM_SPEED STORM_DIR
1883187N20089 1883 18 NI BB NOT_NAMED 1883-07-06 00:00:00 TS 20.2000 88.8000 main 156 156 _________O____ -1 20.2000 88.8000 TC 30 0 0
1883187N20089 1883 18 NI BB NOT_NAMED 1883-07-06 03:00:00 TS 20.2000 88.8083 main 156 156 _________PO___ -1 20.2000 88.8125 TC 30 20.2000 88.8000 1 0 0
1883187N20089 1883 18 NI BB NOT_NAMED 1883-07-06 06:00:00 TS 20.2000 88.7900 main 156 156 _________OP___ -1 20.2000 88.8000 TC 30 20.2000 88.7750 1 1 270
1883187N20089 1883 18 NI BB NOT_NAMED 1883-07-06 09:00:00 TS 20.2000 88.7500 main 156 156 _________PP___ -1 20.2000 88.7500 TC 30 20.2000 88.7500 1 1 270
1883187N20089 1883 18 NI BB NOT_NAMED 1883-07-06 12:00:00 TS 20.2000 88.7125 main 157 157 _________OP___ -1 20.2000 88.7000 TC 30 20.2000 88.7250 1 0 270
1883187N20089 1883 18 NI BB NOT_NAMED 1883-07-06 15:00:00 TS 20.2000 88.7000 main 157 157 _________PO___ -1 20.2000 88.7000 TC 30 20.2000 88.7000 1 0 0
1883187N20089 1883 18 NI BB NOT_NAMED 1883-07-06 18:00:00 TS 20.2000 88.6875 main 157 157 _________OP___ -1 20.2000 88.7000 TC 30 20.2000 88.6750 1 0 270
1883187N20089 1883 18 NI BB NOT_NAMED 1883-07-06 21:00:00 TS 20.2000 88.6500 main 157 156 _________PP___ -1 20.2000 88.6500 TC 30 20.2000 88.6500 1 1 270
1883187N20089 1883 18 NI BB NOT_NAMED 1883-07-07 00:00:00 TS 20.2000 88.6125 main 156 156 _________OP___ -1 20.2000 88.6000 TC 30 20.2000 88.6250 1 0 270
1883187N20089 1883 18 NI BB NOT_NAMED 1883-07-07 03:00:00 TS 20.2000 88.6000 main 156 156 _________PO___ -1 20.2000 88.6000 TC 30 20.2000 88.6000 1 0 0
1883187N20089 1883 18 NI BB NOT_NAMED 1883-07-07 06:00:00 TS 20.1834 88.6319 main 156 156 _________OP___ -1 20.2000 88.6000 TC 30 20.1668 88.6638 1 1 122
1883187N20089 1883 18 NI BB NOT_NAMED 1883-07-07 09:00:00 TS 20.1580 88.6769 main 157 156 _________PP___ -1 20.1772 88.6398 TC 30 20.1388 88.7140 1 0 251
1883187N20089 1883 18 NI BB NOT_NAMED 1883-07-07 12:00:00 TS 20.1707 88.5911 main 156 146 _________OP___ -1 20.2000 88.5000 TC 30 20.1413 88.6821 1 4 283
1883187N20089 1883 18 NI BB NOT_NAMED 1883-07-07 15:00:00 TS 20.2565 88.2375 main 132 80 _________PO___ -1 20.3129 87.9750 TC 30 20.2000 88.5000 1 9 287
1883187N20089 1883 18 NI BB NOT_NAMED 1883-07-07 18:00:00 TS 20.4253 87.7101 main 80 23 _________OP___ -1 20.5000 87.3000 TC 30 20.3506 88.1202 1 11 292
1883187N20089 1883 18 NI BB NOT_NAMED 1883-07-07 21:00:00 TS 20.6483 87.1815 main 23 0 _________PP___ -1 20.7418 86.7799 TC 30 20.5548 87.5832 1 12 293
1883187N20089 1883 18 NI BB NOT_NAMED 1883-07-08 00:00:00 TS 20.8908 86.5647 main 0 0 _________OP___ -1 21.0000 86.2000 TC 30 20.7815 86.9294 1 14 290
1883187N20089 1883 18 NI BB NOT_NAMED 1883-07-08 03:00:00 TS 21.1113 85.8188 main 0 0 _________PO___ -1 21.2226 85.4376 TC 30 21.0000 86.2000 1 15 286
1883187N20089 1883 18 NI BB NOT_NAMED 1883-07-08 06:00:00 TS 21.2904 85.0324 main 0 0 _________OP___ -1 21.4000 84.6000 TC 30 21.1808 85.4648 1 15 282
1883187N20089 1883 18 NI BB NOT_NAMED 1883-07-08 09:00:00 TS 21.4299 84.2337 main 0 0 _________PP___ -1 21.5146 83.7996 TC 30 21.3452 84.6677 1 15 280
1883187N20089 1883 18 NI BB NOT_NAMED 1883-07-08 12:00:00 TS 21.5434 83.4184 main 0 0 _________OP___ -1 21.6000 83.0000 TC 30 21.4868 83.8367 1 15 279
1883187N20089 1883 18 NI BB NOT_NAMED 1883-07-08 15:00:00 TS 21.6573 82.6001 main 0 0 _________PO___ -1 21.7146 82.2001 TC 30 21.6000 83.0000 1 15 277
1883187N20089 1883 18 NI BB NOT_NAMED 1883-07-08 18:00:00 TS 21.7323 81.8458 main 0 0 _________OP___ -1 21.8000 81.4000 TC 30 21.6815 82.1802 1 14 275
1883187N20089 1883 18 NI BB NOT_NAMED 1883-07-08 21:00:00 TS 21.7705 81.0664 main 0 0 _________PP___ -1 21.8208 80.5998 TC 30 21.7370 81.3774 1 14 272
1883187N20089 1883 18 NI BB NOT_NAMED 1883-07-09 00:00:00 TS 21.7827 80.3239 main 0 0 _________OP___ -1 21.8000 79.8000 TC 30 21.7740 80.5859 1 12 271
1883187N20089 1883 18 NI BB NOT_NAMED 1883-07-09 03:00:00 NR 21.8000 79.8000 main 0 __________O___ -1 TC 21.8000 79.8000 1 10 272

About IBTrACS Database

This database is a web-friendly format of International Best Track Archive for Climate Stewardship (IBTrACS), a global best track data archive curated by NOAA dating back to 1842.

Updated: 2021-12-03